CheckWX is a tool to help pilots better visualize weather data.  It is not intended as a substitute for an official pre-flight weather briefing.

18:38:45 UTC

KLGU TAF
Logan-Cache Airport
Logan, Utah, USA
KLGU 161731Z 1618/1718 VRB05KT 3SM -RASN BR SCT010 BKN035 FM161900 25009KT 6SM -RA BR SCT010 BKN035 FM170200 30010KT P6SM VCSH SCT020 BKN040 FM170800 VRB04KT P6SM SCT040 BKN080

Feb-16@
18:00 UTC

Feb-16 @ 18:00 UTC

Feb-16@
19:00 UTC

Feb-16 @ 19:00 UTC

KLGU 161731Z 1618/1718 VRB05KT 3SM -RASN BR SCT010 BKN035
Wind
  • Variable at 5 KTS
Conditions
Light Rain, Light Snow, Mist
Cloud Levels
  • Scattered at 1,000' AGL
  • Broken at 3,500' AGL

Feb-16@
19:00 UTC

Feb-16 @ 19:00 UTC

Feb-17@
02:00 UTC

Feb-17 @ 02:00 UTC

FM161900 25009KT 6SM -RA BR SCT010 BKN035

From

From Standard forecast or significant change

Wind
  • 250° at 9 KTS
Conditions
Light Rain, Mist
Cloud Levels
  • Scattered at 1,000' AGL
  • Broken at 3,500' AGL

Feb-17@
02:00 UTC

Feb-17 @ 02:00 UTC

Feb-17@
08:00 UTC

Feb-17 @ 08:00 UTC

FM170200 30010KT P6SM VCSH SCT020 BKN040

From

From Standard forecast or significant change

Wind
  • 300° at 10 KTS
Cloud Levels
  • Scattered at 2,000' AGL
  • Broken at 4,000' AGL

Feb-17@
08:00 UTC

Feb-17 @ 08:00 UTC

Feb-17@
18:00 UTC

Feb-17 @ 18:00 UTC

FM170800 VRB04KT P6SM SCT040 BKN080

From

From Standard forecast or significant change

Wind
  • Variable at 4 KTS
Cloud Levels
  • Scattered at 4,000' AGL
  • Broken at 8,000' AGL